sensor_id;sensor_type;location;lat;lon;timestamp;P1;durP1;ratioP1;P2;durP2;ratioP2
17564;SDS011;62994;52.126;5.596;2024-02-14T00:01:21;4.47;;;4.28;;
17564;SDS011;62994;52.126;5.596;2024-02-14T00:03:54;4.35;;;4.03;;
17564;SDS011;62994;52.126;5.596;2024-02-14T00:06:22;5.63;;;4.65;;
17564;SDS011;62994;52.126;5.596;2024-02-14T00:08:49;4.75;;;4.45;;
17564;SDS011;62994;52.126;5.596;2024-02-14T00:11:17;4.38;;;4.18;;
17564;SDS011;62994;52.126;5.596;2024-02-14T00:13:44;4.80;;;4.43;;
17564;SDS011;62994;52.126;5.596;2024-02-14T00:16:12;5.22;;;4.93;;
17564;SDS011;62994;52.126;5.596;2024-02-14T00:18:40;4.72;;;4.38;;
17564;SDS011;62994;52.126;5.596;2024-02-14T00:21:07;5.05;;;4.75;;
17564;SDS011;62994;52.126;5.596;2024-02-14T00:23:34;4.35;;;4.15;;
17564;SDS011;62994;52.126;5.596;2024-02-14T00:26:01;4.30;;;4.10;;
17564;SDS011;62994;52.126;5.596;2024-02-14T00:28:28;5.00;;;4.78;;
17564;SDS011;62994;52.126;5.596;2024-02-14T00:30:56;4.47;;;4.28;;
17564;SDS011;62994;52.126;5.596;2024-02-14T00:33:25;4.90;;;4.47;;
17564;SDS011;62994;52.126;5.596;2024-02-14T00:35:53;4.57;;;4.38;;
17564;SDS011;62994;52.126;5.596;2024-02-14T00:38:20;4.85;;;4.65;;
17564;SDS011;62994;52.126;5.596;2024-02-14T00:40:47;4.72;;;4.53;;
17564;SDS011;62994;52.126;5.596;2024-02-14T00:43:14;4.95;;;4.65;;
17564;SDS011;62994;52.126;5.596;2024-02-14T00:45:41;5.68;;;5.38;;
17564;SDS011;62994;52.126;5.596;2024-02-14T00:48:08;4.97;;;4.68;;
17564;SDS011;62994;52.126;5.596;2024-02-14T00:50:35;5.97;;;5.57;;
17564;SDS011;62994;52.126;5.596;2024-02-14T00:53:04;6.15;;;5.60;;
17564;SDS011;62994;52.126;5.596;2024-02-14T00:55:32;5.47;;;5.18;;
17564;SDS011;62994;52.126;5.596;2024-02-14T00:57:59;6.35;;;5.85;;
17564;SDS011;62994;52.126;5.596;2024-02-14T01:00:26;6.30;;;6.00;;
17564;SDS011;62994;52.126;5.596;2024-02-14T01:02:53;6.40;;;6.10;;
17564;SDS011;62994;52.126;5.596;2024-02-14T01:05:21;6.43;;;6.13;;
17564;SDS011;62994;52.126;5.596;2024-02-14T01:07:48;7.45;;;6.78;;
17564;SDS011;62994;52.126;5.596;2024-02-14T01:10:16;7.65;;;7.15;;
17564;SDS011;62994;52.126;5.596;2024-02-14T01:12:44;8.73;;;7.85;;
17564;SDS011;62994;52.126;5.596;2024-02-14T01:15:11;7.97;;;7.35;;
17564;SDS011;62994;52.126;5.596;2024-02-14T01:17:38;8.15;;;7.57;;
17564;SDS011;62994;52.126;5.596;2024-02-14T01:20:05;7.70;;;7.13;;
17564;SDS011;62994;52.126;5.596;2024-02-14T01:22:34;8.32;;;7.63;;
17564;SDS011;62994;52.126;5.596;2024-02-14T01:25:02;9.10;;;8.40;;
17564;SDS011;62994;52.126;5.596;2024-02-14T01:27:31;8.75;;;8.15;;
17564;SDS011;62994;52.126;5.596;2024-02-14T01:29:58;9.35;;;8.50;;
17564;SDS011;62994;52.126;5.596;2024-02-14T01:32:25;9.18;;;8.48;;
17564;SDS011;62994;52.126;5.596;2024-02-14T01:34:54;8.80;;;8.20;;
17564;SDS011;62994;52.126;5.596;2024-02-14T01:37:21;9.63;;;8.85;;
17564;SDS011;62994;52.126;5.596;2024-02-14T01:39:48;9.43;;;8.82;;
17564;SDS011;62994;52.126;5.596;2024-02-14T01:42:15;10.48;;;9.38;;
17564;SDS011;62994;52.126;5.596;2024-02-14T01:44:45;9.73;;;8.52;;
17564;SDS011;62994;52.126;5.596;2024-02-14T01:47:12;9.60;;;8.88;;
17564;SDS011;62994;52.126;5.596;2024-02-14T01:49:40;9.45;;;8.75;;
17564;SDS011;62994;52.126;5.596;2024-02-14T01:52:09;10.55;;;9.70;;
17564;SDS011;62994;52.126;5.596;2024-02-14T01:54:36;12.48;;;9.93;;
17564;SDS011;62994;52.126;5.596;2024-02-14T01:57:03;9.98;;;9.15;;
17564;SDS011;62994;52.126;5.596;2024-02-14T01:59:32;10.10;;;9.32;;
17564;SDS011;62994;52.126;5.596;2024-02-14T02:02:02;11.05;;;10.10;;
17564;SDS011;62994;52.126;5.596;2024-02-14T02:04:32;10.40;;;9.70;;
17564;SDS011;62994;52.126;5.596;2024-02-14T02:07:00;10.80;;;9.93;;
17564;SDS011;62994;52.126;5.596;2024-02-14T02:09:27;10.10;;;9.43;;
17564;SDS011;62994;52.126;5.596;2024-02-14T02:11:56;11.00;;;10.30;;
17564;SDS011;62994;52.126;5.596;2024-02-14T02:14:23;11.40;;;10.27;;
17564;SDS011;62994;52.126;5.596;2024-02-14T02:16:56;11.35;;;10.18;;
17564;SDS011;62994;52.126;5.596;2024-02-14T02:19:24;13.20;;;10.32;;
17564;SDS011;62994;52.126;5.596;2024-02-14T02:21:51;11.32;;;9.95;;
17564;SDS011;62994;52.126;5.596;2024-02-14T02:24:19;12.07;;;11.05;;
17564;SDS011;62994;52.126;5.596;2024-02-14T02:26:46;11.95;;;10.88;;
17564;SDS011;62994;52.126;5.596;2024-02-14T02:29:13;11.52;;;10.40;;
17564;SDS011;62994;52.126;5.596;2024-02-14T02:31:41;11.85;;;10.88;;
17564;SDS011;62994;52.126;5.596;2024-02-14T02:34:08;10.38;;;9.65;;
17564;SDS011;62994;52.126;5.596;2024-02-14T02:36:35;11.07;;;10.38;;
17564;SDS011;62994;52.126;5.596;2024-02-14T02:39:03;10.77;;;10.05;;
17564;SDS011;62994;52.126;5.596;2024-02-14T02:41:32;12.13;;;10.27;;
17564;SDS011;62994;52.126;5.596;2024-02-14T02:43:58;11.32;;;10.43;;
17564;SDS011;62994;52.126;5.596;2024-02-14T02:46:26;10.60;;;9.88;;
17564;SDS011;62994;52.126;5.596;2024-02-14T02:48:54;10.90;;;10.00;;
17564;SDS011;62994;52.126;5.596;2024-02-14T02:51:23;10.27;;;9.63;;
17564;SDS011;62994;52.126;5.596;2024-02-14T02:53:50;10.35;;;9.73;;
17564;SDS011;62994;52.126;5.596;2024-02-14T02:56:17;11.02;;;10.27;;
17564;SDS011;62994;52.126;5.596;2024-02-14T02:58:48;10.98;;;10.10;;
17564;SDS011;62994;52.126;5.596;2024-02-14T03:01:15;12.05;;;10.95;;
17564;SDS011;62994;52.126;5.596;2024-02-14T03:03:42;11.85;;;10.68;;
17564;SDS011;62994;52.126;5.596;2024-02-14T03:06:09;12.45;;;11.20;;
17564;SDS011;62994;52.126;5.596;2024-02-14T03:08:37;12.20;;;11.23;;
17564;SDS011;62994;52.126;5.596;2024-02-14T03:11:09;11.57;;;10.70;;
17564;SDS011;62994;52.126;5.596;2024-02-14T03:13:36;11.60;;;10.80;;
17564;SDS011;62994;52.126;5.596;2024-02-14T03:16:07;11.75;;;10.75;;
17564;SDS011;62994;52.126;5.596;2024-02-14T03:18:34;11.30;;;10.60;;
17564;SDS011;62994;52.126;5.596;2024-02-14T03:21:03;10.63;;;9.70;;
17564;SDS011;62994;52.126;5.596;2024-02-14T03:23:31;11.13;;;10.38;;
17564;SDS011;62994;52.126;5.596;2024-02-14T03:25:58;11.10;;;10.18;;
17564;SDS011;62994;52.126;5.596;2024-02-14T03:28:25;11.35;;;10.25;;
17564;SDS011;62994;52.126;5.596;2024-02-14T03:30:52;11.00;;;10.20;;
17564;SDS011;62994;52.126;5.596;2024-02-14T03:33:21;11.13;;;10.30;;
17564;SDS011;62994;52.126;5.596;2024-02-14T03:35:48;11.60;;;10.68;;
17564;SDS011;62994;52.126;5.596;2024-02-14T03:38:24;12.38;;;11.38;;
17564;SDS011;62994;52.126;5.596;2024-02-14T03:40:52;13.73;;;12.55;;
17564;SDS011;62994;52.126;5.596;2024-02-14T03:43:19;13.65;;;12.52;;
17564;SDS011;62994;52.126;5.596;2024-02-14T03:45:48;15.13;;;13.60;;
17564;SDS011;62994;52.126;5.596;2024-02-14T03:48:16;16.30;;;14.65;;
17564;SDS011;62994;52.126;5.596;2024-02-14T03:50:45;15.98;;;14.25;;
17564;SDS011;62994;52.126;5.596;2024-02-14T03:53:12;16.40;;;14.82;;
17564;SDS011;62994;52.126;5.596;2024-02-14T03:55:40;16.33;;;14.63;;
17564;SDS011;62994;52.126;5.596;2024-02-14T03:58:07;16.80;;;15.20;;
17564;SDS011;62994;52.126;5.596;2024-02-14T04:00:34;17.25;;;15.55;;
17564;SDS011;62994;52.126;5.596;2024-02-14T04:03:01;17.65;;;15.18;;
17564;SDS011;62994;52.126;5.596;2024-02-14T04:05:28;22.25;;;15.75;;
17564;SDS011;62994;52.126;5.596;2024-02-14T04:07:56;19.42;;;15.00;;
17564;SDS011;62994;52.126;5.596;2024-02-14T04:10:23;22.42;;;16.13;;
17564;SDS011;62994;52.126;5.596;2024-02-14T04:12:51;25.13;;;15.82;;
17564;SDS011;62994;52.126;5.596;2024-02-14T04:15:18;17.70;;;15.18;;
17564;SDS011;62994;52.126;5.596;2024-02-14T04:17:45;20.50;;;16.02;;
17564;SDS011;62994;52.126;5.596;2024-02-14T04:20:12;20.13;;;15.45;;
17564;SDS011;62994;52.126;5.596;2024-02-14T04:22:39;18.13;;;14.82;;
17564;SDS011;62994;52.126;5.596;2024-02-14T04:25:08;22.25;;;16.08;;
17564;SDS011;62994;52.126;5.596;2024-02-14T04:27:35;23.35;;;16.15;;
17564;SDS011;62994;52.126;5.596;2024-02-14T04:30:03;23.85;;;15.68;;
17564;SDS011;62994;52.126;5.596;2024-02-14T04:32:31;19.33;;;15.35;;
17564;SDS011;62994;52.126;5.596;2024-02-14T04:34:58;30.25;;;16.77;;
17564;SDS011;62994;52.126;5.596;2024-02-14T04:37:25;20.67;;;16.20;;
17564;SDS011;62994;52.126;5.596;2024-02-14T04:40:00;21.17;;;16.30;;
17564;SDS011;62994;52.126;5.596;2024-02-14T04:45:43;22.75;;;15.02;;
17564;SDS011;62994;52.126;5.596;2024-02-14T04:48:56;25.42;;;16.45;;
17564;SDS011;62994;52.126;5.596;2024-02-14T04:58:41;26.30;;;16.65;;
17564;SDS011;62994;52.126;5.596;2024-02-14T05:01:29;23.05;;;15.68;;
17564;SDS011;62994;52.126;5.596;2024-02-14T05:04:28;24.48;;;17.05;;
17564;SDS011;62994;52.126;5.596;2024-02-14T05:07:26;25.85;;;16.48;;
17564;SDS011;62994;52.126;5.596;2024-02-14T05:10:16;22.80;;;16.52;;
17564;SDS011;62994;52.126;5.596;2024-02-14T05:16:24;25.00;;;17.15;;
17564;SDS011;62994;52.126;5.596;2024-02-14T05:19:21;30.30;;;16.88;;
17564;SDS011;62994;52.126;5.596;2024-02-14T05:22:19;22.38;;;15.55;;
17564;SDS011;62994;52.126;5.596;2024-02-14T05:25:14;20.23;;;15.57;;
17564;SDS011;62994;52.126;5.596;2024-02-14T05:28:31;22.50;;;15.35;;
17564;SDS011;62994;52.126;5.596;2024-02-14T05:31:32;21.02;;;14.88;;
17564;SDS011;62994;52.126;5.596;2024-02-14T05:37:41;19.42;;;15.73;;
17564;SDS011;62994;52.126;5.596;2024-02-14T05:40:29;20.52;;;16.42;;
17564;SDS011;62994;52.126;5.596;2024-02-14T05:43:23;19.23;;;15.35;;
17564;SDS011;62994;52.126;5.596;2024-02-14T05:46:23;19.27;;;15.73;;
17564;SDS011;62994;52.126;5.596;2024-02-14T05:49:03;23.90;;;15.45;;
17564;SDS011;62994;52.126;5.596;2024-02-14T05:52:06;19.98;;;15.60;;
17564;SDS011;62994;52.126;5.596;2024-02-14T05:56:10;21.45;;;16.80;;
17564;SDS011;62994;52.126;5.596;2024-02-14T05:58:31;18.60;;;15.00;;
17564;SDS011;62994;52.126;5.596;2024-02-14T06:01:14;19.20;;;15.38;;
17564;SDS011;62994;52.126;5.596;2024-02-14T06:16:51;17.52;;;15.27;;
17564;SDS011;62994;52.126;5.596;2024-02-14T06:20:24;18.50;;;15.25;;
17564;SDS011;62994;52.126;5.596;2024-02-14T06:26:17;20.92;;;15.75;;
17564;SDS011;62994;52.126;5.596;2024-02-14T06:32:24;19.58;;;16.80;;
17564;SDS011;62994;52.126;5.596;2024-02-14T06:35:06;17.10;;;15.23;;
17564;SDS011;62994;52.126;5.596;2024-02-14T06:37:52;19.35;;;15.77;;
17564;SDS011;62994;52.126;5.596;2024-02-14T06:41:14;17.48;;;15.68;;
17564;SDS011;62994;52.126;5.596;2024-02-14T06:45:38;18.40;;;15.05;;
17564;SDS011;62994;52.126;5.596;2024-02-14T06:47:55;16.23;;;14.52;;
17564;SDS011;62994;52.126;5.596;2024-02-14T06:51:00;15.43;;;14.02;;
17564;SDS011;62994;52.126;5.596;2024-02-14T06:54:09;16.40;;;14.80;;
17564;SDS011;62994;52.126;5.596;2024-02-14T06:56:59;15.15;;;13.85;;
17564;SDS011;62994;52.126;5.596;2024-02-14T07:00:55;15.68;;;14.23;;
17564;SDS011;62994;52.126;5.596;2024-02-14T07:07:26;17.02;;;15.32;;
17564;SDS011;62994;52.126;5.596;2024-02-14T07:10:03;16.05;;;14.45;;
17564;SDS011;62994;52.126;5.596;2024-02-14T07:17:23;16.92;;;14.77;;
17564;SDS011;62994;52.126;5.596;2024-02-14T07:20:15;18.52;;;16.65;;
17564;SDS011;62994;52.126;5.596;2024-02-14T07:25:58;18.40;;;16.45;;
17564;SDS011;62994;52.126;5.596;2024-02-14T07:29:21;20.05;;;17.52;;
17564;SDS011;62994;52.126;5.596;2024-02-14T07:32:27;19.00;;;17.00;;
17564;SDS011;62994;52.126;5.596;2024-02-14T07:39:00;20.55;;;17.75;;
17564;SDS011;62994;52.126;5.596;2024-02-14T07:44:15;22.10;;;16.70;;
17564;SDS011;62994;52.126;5.596;2024-02-14T07:51:52;18.52;;;16.67;;
17564;SDS011;62994;52.126;5.596;2024-02-14T07:58:19;20.58;;;17.35;;
17564;SDS011;62994;52.126;5.596;2024-02-14T08:01:25;20.98;;;17.85;;
17564;SDS011;62994;52.126;5.596;2024-02-14T08:04:22;23.63;;;18.63;;
17564;SDS011;62994;52.126;5.596;2024-02-14T08:08:05;19.85;;;17.70;;
17564;SDS011;62994;52.126;5.596;2024-02-14T08:10:34;23.60;;;18.60;;
17564;SDS011;62994;52.126;5.596;2024-02-14T08:19:26;24.13;;;18.17;;
17564;SDS011;62994;52.126;5.596;2024-02-14T08:22:26;20.55;;;18.35;;
17564;SDS011;62994;52.126;5.596;2024-02-14T08:25:20;22.58;;;17.70;;
17564;SDS011;62994;52.126;5.596;2024-02-14T08:45:11;24.95;;;18.15;;
17564;SDS011;62994;52.126;5.596;2024-02-14T08:47:56;24.70;;;18.38;;
17564;SDS011;62994;52.126;5.596;2024-02-14T08:51:50;29.00;;;18.73;;
17564;SDS011;62994;52.126;5.596;2024-02-14T08:54:31;26.83;;;17.70;;
17564;SDS011;62994;52.126;5.596;2024-02-14T08:57:38;22.13;;;18.40;;
17564;SDS011;62994;52.126;5.596;2024-02-14T09:03:43;22.17;;;16.77;;
17564;SDS011;62994;52.126;5.596;2024-02-14T09:06:38;23.17;;;17.48;;
17564;SDS011;62994;52.126;5.596;2024-02-14T09:09:13;20.35;;;16.70;;
17564;SDS011;62994;52.126;5.596;2024-02-14T09:15:58;15.60;;;14.10;;
17564;SDS011;62994;52.126;5.596;2024-02-14T09:19:18;20.52;;;14.57;;
17564;SDS011;62994;52.126;5.596;2024-02-14T09:22:08;15.40;;;14.10;;
17564;SDS011;62994;52.126;5.596;2024-02-14T09:25:08;15.00;;;13.70;;
17564;SDS011;62994;52.126;5.596;2024-02-14T09:28:12;15.20;;;13.70;;
17564;SDS011;62994;52.126;5.596;2024-02-14T09:45:04;15.07;;;13.57;;
17564;SDS011;62994;52.126;5.596;2024-02-14T09:48:12;15.40;;;13.95;;
17564;SDS011;62994;52.126;5.596;2024-02-14T09:54:16;14.80;;;13.43;;
17564;SDS011;62994;52.126;5.596;2024-02-14T09:57:27;13.57;;;12.50;;
17564;SDS011;62994;52.126;5.596;2024-02-14T10:21:27;25.15;;;18.30;;
17564;SDS011;62994;52.126;5.596;2024-02-14T10:27:14;18.73;;;16.50;;
17564;SDS011;62994;52.126;5.596;2024-02-14T10:30:31;17.75;;;15.95;;
17564;SDS011;62994;52.126;5.596;2024-02-14T10:33:37;21.25;;;16.38;;
17564;SDS011;62994;52.126;5.596;2024-02-14T10:36:23;17.65;;;15.85;;
17564;SDS011;62994;52.126;5.596;2024-02-14T10:39:46;17.15;;;15.43;;
17564;SDS011;62994;52.126;5.596;2024-02-14T10:46:21;22.35;;;15.60;;
17564;SDS011;62994;52.126;5.596;2024-02-14T10:50:01;15.52;;;14.00;;
17564;SDS011;62994;52.126;5.596;2024-02-14T10:59:29;16.95;;;15.25;;
17564;SDS011;62994;52.126;5.596;2024-02-14T11:02:14;16.20;;;14.60;;
17564;SDS011;62994;52.126;5.596;2024-02-14T11:05:12;16.50;;;15.00;;
17564;SDS011;62994;52.126;5.596;2024-02-14T11:08:09;15.70;;;14.20;;
17564;SDS011;62994;52.126;5.596;2024-02-14T11:11:23;16.45;;;14.85;;
17564;SDS011;62994;52.126;5.596;2024-02-14T11:14:32;16.60;;;14.77;;
17564;SDS011;62994;52.126;5.596;2024-02-14T11:17:38;17.65;;;13.52;;
17564;SDS011;62994;52.126;5.596;2024-02-14T11:24:26;13.80;;;12.63;;
17564;SDS011;62994;52.126;5.596;2024-02-14T11:31:01;13.68;;;12.30;;
17564;SDS011;62994;52.126;5.596;2024-02-14T11:34:08;14.02;;;12.70;;
17564;SDS011;62994;52.126;5.596;2024-02-14T11:38:10;12.60;;;11.60;;
17564;SDS011;62994;52.126;5.596;2024-02-14T11:41:43;13.35;;;12.18;;
17564;SDS011;62994;52.126;5.596;2024-02-14T11:46:21;13.95;;;12.55;;
17564;SDS011;62994;52.126;5.596;2024-02-14T11:57:26;12.02;;;11.05;;
17564;SDS011;62994;52.126;5.596;2024-02-14T12:00:33;12.15;;;11.10;;
17564;SDS011;62994;52.126;5.596;2024-02-14T12:06:50;11.55;;;10.68;;
17564;SDS011;62994;52.126;5.596;2024-02-14T12:10:07;10.93;;;10.13;;
17564;SDS011;62994;52.126;5.596;2024-02-14T12:24:57;9.50;;;8.75;;
17564;SDS011;62994;52.126;5.596;2024-02-14T12:43:24;8.48;;;7.95;;
17564;SDS011;62994;52.126;5.596;2024-02-14T12:47:18;8.13;;;7.63;;
17564;SDS011;62994;52.126;5.596;2024-02-14T13:46:03;6.32;;;6.03;;
17564;SDS011;62994;52.126;5.596;2024-02-14T13:50:56;6.03;;;5.57;;
17564;SDS011;62994;52.126;5.596;2024-02-14T13:54:09;5.07;;;4.68;;
17564;SDS011;62994;52.126;5.596;2024-02-14T16:08:52;8.23;;;7.82;;
17564;SDS011;62994;52.126;5.596;2024-02-14T17:10:42;5.85;;;5.55;;
17564;SDS011;62994;52.126;5.596;2024-02-14T17:50:52;11.25;;;10.25;;
17564;SDS011;62994;52.126;5.596;2024-02-14T17:53:39;12.18;;;10.90;;
17564;SDS011;62994;52.126;5.596;2024-02-14T17:56:15;13.13;;;11.95;;
17564;SDS011;62994;52.126;5.596;2024-02-14T17:59:06;12.60;;;11.57;;
17564;SDS011;62994;52.126;5.596;2024-02-14T18:08:52;13.40;;;11.70;;
17564;SDS011;62994;52.126;5.596;2024-02-14T18:11:47;12.60;;;11.38;;
17564;SDS011;62994;52.126;5.596;2024-02-14T18:14:44;12.70;;;11.73;;
17564;SDS011;62994;52.126;5.596;2024-02-14T18:17:54;12.43;;;11.52;;
17564;SDS011;62994;52.126;5.596;2024-02-14T18:24:28;11.95;;;11.02;;
17564;SDS011;62994;52.126;5.596;2024-02-14T18:37:34;11.35;;;10.45;;
17564;SDS011;62994;52.126;5.596;2024-02-14T18:40:52;12.63;;;11.38;;
17564;SDS011;62994;52.126;5.596;2024-02-14T19:04:04;10.77;;;9.93;;
17564;SDS011;62994;52.126;5.596;2024-02-14T19:07:12;9.95;;;8.70;;
17564;SDS011;62994;52.126;5.596;2024-02-14T19:14:08;9.40;;;8.73;;
17564;SDS011;62994;52.126;5.596;2024-02-14T19:16:46;10.13;;;9.20;;
17564;SDS011;62994;52.126;5.596;2024-02-14T19:20:26;10.05;;;9.35;;
17564;SDS011;62994;52.126;5.596;2024-02-14T19:28:17;10.10;;;9.40;;
17564;SDS011;62994;52.126;5.596;2024-02-14T19:29:24;11.43;;;10.38;;
17564;SDS011;62994;52.126;5.596;2024-02-14T19:35:25;12.15;;;11.02;;
17564;SDS011;62994;52.126;5.596;2024-02-14T19:41:25;11.93;;;10.50;;
17564;SDS011;62994;52.126;5.596;2024-02-14T19:44:41;11.95;;;10.35;;
17564;SDS011;62994;52.126;5.596;2024-02-14T19:47:53;10.75;;;9.77;;
17564;SDS011;62994;52.126;5.596;2024-02-14T20:10:33;9.48;;;8.60;;
17564;SDS011;62994;52.126;5.596;2024-02-14T21:07:37;9.90;;;9.18;;
17564;SDS011;62994;52.126;5.596;2024-02-14T21:10:48;9.88;;;8.90;;
17564;SDS011;62994;52.126;5.596;2024-02-14T21:13:44;8.80;;;8.20;;
17564;SDS011;62994;52.126;5.596;2024-02-14T21:42:57;10.85;;;10.15;;
17564;SDS011;62994;52.126;5.596;2024-02-14T21:49:51;11.00;;;10.23;;
17564;SDS011;62994;52.126;5.596;2024-02-14T21:54:07;10.95;;;10.15;;
17564;SDS011;62994;52.126;5.596;2024-02-14T22:07:17;9.52;;;8.88;;
17564;SDS011;62994;52.126;5.596;2024-02-14T22:10:45;11.70;;;9.57;;
17564;SDS011;62994;52.126;5.596;2024-02-14T22:19:39;12.00;;;9.35;;
17564;SDS011;62994;52.126;5.596;2024-02-14T22:22:47;15.25;;;9.52;;
17564;SDS011;62994;52.126;5.596;2024-02-14T22:25:46;12.20;;;8.85;;
17564;SDS011;62994;52.126;5.596;2024-02-14T22:29:48;10.23;;;8.30;;
17564;SDS011;62994;52.126;5.596;2024-02-14T22:32:05;12.98;;;8.00;;
17564;SDS011;62994;52.126;5.596;2024-02-14T22:39:30;9.30;;;7.90;;
17564;SDS011;62994;52.126;5.596;2024-02-14T22:42:18;10.55;;;7.65;;
17564;SDS011;62994;52.126;5.596;2024-02-14T22:45:46;9.52;;;8.02;;
17564;SDS011;62994;52.126;5.596;2024-02-14T22:48:26;9.80;;;7.65;;
17564;SDS011;62994;52.126;5.596;2024-02-14T22:58:08;10.43;;;7.55;;
17564;SDS011;62994;52.126;5.596;2024-02-14T23:01:07;8.40;;;6.90;;
17564;SDS011;62994;52.126;5.596;2024-02-14T23:03:57;9.70;;;7.45;;
17564;SDS011;62994;52.126;5.596;2024-02-14T23:07:14;7.93;;;6.93;;
17564;SDS011;62994;52.126;5.596;2024-02-14T23:11:00;10.20;;;7.38;;
17564;SDS011;62994;52.126;5.596;2024-02-14T23:14:00;17.92;;;8.38;;
17564;SDS011;62994;52.126;5.596;2024-02-14T23:17:00;12.10;;;7.95;;
17564;SDS011;62994;52.126;5.596;2024-02-14T23:20:20;12.57;;;8.13;;
17564;SDS011;62994;52.126;5.596;2024-02-14T23:22:47;9.18;;;8.18;;
17564;SDS011;62994;52.126;5.596;2024-02-14T23:25:14;17.20;;;8.85;;
17564;SDS011;62994;52.126;5.596;2024-02-14T23:27:42;16.42;;;8.88;;
17564;SDS011;62994;52.126;5.596;2024-02-14T23:30:10;11.90;;;8.82;;
17564;SDS011;62994;52.126;5.596;2024-02-14T23:32:39;11.10;;;8.30;;
17564;SDS011;62994;52.126;5.596;2024-02-14T23:35:06;9.90;;;8.95;;
17564;SDS011;62994;52.126;5.596;2024-02-14T23:37:36;16.48;;;8.95;;
17564;SDS011;62994;52.126;5.596;2024-02-14T23:40:04;9.90;;;7.72;;
17564;SDS011;62994;52.126;5.596;2024-02-14T23:42:37;11.43;;;8.10;;
17564;SDS011;62994;52.126;5.596;2024-02-14T23:45:09;9.68;;;8.30;;
17564;SDS011;62994;52.126;5.596;2024-02-14T23:47:40;22.55;;;9.85;;
17564;SDS011;62994;52.126;5.596;2024-02-14T23:50:07;10.30;;;9.30;;
17564;SDS011;62994;52.126;5.596;2024-02-14T23:52:36;12.80;;;8.63;;
17564;SDS011;62994;52.126;5.596;2024-02-14T23:55:06;18.17;;;9.38;;
17564;SDS011;62994;52.126;5.596;2024-02-14T23:57:34;9.48;;;8.57;;
